ADDS METAR Data INFO
IDs: Format: Raw Decoded Include TAF

Data at: 1321 UTC 11 Dec 2017

KLBF 111253Z AUTO 31005KT 10SM CLR M02/M08 A3017 RMK AO2 SLP238 T10221078
KLBF 111153Z AUTO 32008KT 10SM CLR M03/M08 A3017 RMK AO2 SLP235 T10281078 11028 21056 50008
KLBF 111053Z AUTO 32007KT 10SM CLR M03/M08 A3017 RMK AO2 SLP228 T10281083
KLBF 110953Z AUTO 31008KT 10SM CLR M03/M09 A3015 RMK AO2 SLP218 T10331089
KLBF 110853Z AUTO 31007KT 10SM CLR M05/M09 A3014 RMK AO2 SLP215 T10501094 58006
KLBF 110753Z AUTO 31007KT 10SM CLR M05/M09 A3015 RMK AO2 SLP217 T10501094
KLBF 110653Z AUTO 32008KT 10SM CLR M03/M09 A3016 RMK AO2 SLP223 T10331094
KLBF 110553Z AUTO 32008KT 10SM CLR M04/M09 A3016 RMK AO2 SLP227 T10391094 10094 21044 401831072 56005
KLBF 110453Z AUTO 32007KT 10SM CLR M04/M10 A3017 RMK AO2 SLP231 T10391100
KLBF 110353Z AUTO 32006KT 10SM CLR M02/M09 A3017 RMK AO2 SLP236 T10171094
KLBF 110253Z AUTO 33008KT 10SM CLR M01/M10 A3018 RMK AO2 SLP242 T10061100 57003
KLBF 110153Z AUTO 33006KT 10SM CLR 00/M10 A3019 RMK AO2 SLP252 T00001100
KLBF 110053Z AUTO 31004KT 10SM CLR 04/M11 A3018 RMK AO2 SLP246 T00391106
KLBF 102353Z AUTO 24008KT 10SM CLR 07/M10 A3019 RMK AO2 SLP244 T00671100 10183 20050 55004
KLBF 102253Z AUTO 25009KT 10SM CLR 12/M10 A3019 RMK AO2 SLP237 T01221100
KLBF 102153Z AUTO 26009KT 10SM CLR 17/M11 A3020 RMK AO2 SLP236 T01671111
KLBF 102053Z AUTO 29016KT 10SM CLR 18/M14 A3020 RMK AO2 SLP231 T01831139 56016
KLBF 101953Z AUTO 27016KT 10SM CLR 17/M11 A3022 RMK AO2 SLP235 T01721111
KLBF 101853Z AUTO 28013KT 10SM CLR 16/M10 A3023 RMK AO2 SLP247 T01561100
KLBF 101753Z AUTO 28014KT 10SM CLR 12/M09 A3025 RMK AO2 SLP251 T01221089 10122 21067 58001
KLBF 101653Z AUTO 27011KT 10SM CLR 09/M09 A3027 RMK AO2 SLP263 T00891089
KLBF 101553Z AUTO 27012KT 10SM CLR 05/M09 A3026 RMK AO2 SLP268 T00501089
KLBF 101453Z AUTO 28007KT 10SM CLR 01/M08 A3026 RMK AO2 SLP269 T00111078 53009
KLBF 101353Z AUTO 31009KT 10SM CLR M06/M09 A3025 RMK AO2 SLP276 T10611094
KLBF 101253Z AUTO 31007KT 10SM CLR M06/M10 A3024 RMK AO2 SLP271 T10561100
KLBF 101153Z AUTO 29006KT 10SM CLR M05/M10 A3023 RMK AO2 SLP261 T10501100 10033 21072 53004
KLBF 101053Z AUTO 29008KT 10SM CLR M06/M10 A3023 RMK AO2 SLP257 T10611100
KLBF 100953Z AUTO 27008KT 10SM CLR M03/M09 A3021 RMK AO2 SLP241 T10331094
KLBF 100853Z AUTO 27007KT 10SM CLR M01/M10 A3022 RMK AO2 SLP241 T10111100 53003
KLBF 100753Z AUTO 28011KT 10SM CLR 01/M09 A3022 RMK AO2 SLP239 T00061094
KLBF 100653Z AUTO 31008KT 10SM CLR M03/M09 A3021 RMK AO2 SLP242 T10331094
KLBF 100553Z AUTO 28010KT 10SM CLR 03/M09 A3021 RMK AO2 SLP238 T00281094 10039 21033 401441083 52007
KLBF 100453Z AUTO 30007KT 10SM CLR M02/M09 A3020 RMK AO2 SLP246 T10171094
KLBF 100353Z AUTO 32008KT 10SM CLR M02/M09 A3020 RMK AO2 SLP250 T10171089
KLBF 100253Z AUTO 32007KT 10SM CLR 00/M10 A3019 RMK AO2 SLP250 T00001100 53005
KLBF 100153Z AUTO 32007KT 10SM CLR M02/M09 A3018 RMK AO2 SLP252 T10171094